sensor_id;sensor_type;location;lat;lon;timestamp;P1;durP1;ratioP1;P2;durP2;ratioP2
75914;SDS011;64593;51.050;13.780;2024-02-14T07:02:20;8.30;;;3.60;;
75914;SDS011;64593;51.050;13.780;2024-02-14T07:07:22;9.45;;;3.63;;
75914;SDS011;64593;51.050;13.780;2024-02-14T07:12:42;9.48;;;3.47;;
75914;SDS011;64593;51.050;13.780;2024-02-14T07:17:44;8.63;;;3.65;;
75914;SDS011;64593;51.050;13.780;2024-02-14T07:22:46;6.38;;;3.10;;
75914;SDS011;64593;51.050;13.780;2024-02-14T07:27:49;8.93;;;3.65;;
75914;SDS011;64593;51.050;13.780;2024-02-14T07:32:51;5.55;;;2.70;;
75914;SDS011;64593;51.050;13.780;2024-02-14T07:37:53;7.30;;;2.78;;
75914;SDS011;64593;51.050;13.780;2024-02-14T07:42:55;5.95;;;2.95;;
75914;SDS011;64593;51.050;13.780;2024-02-14T07:47:57;4.50;;;2.72;;
75914;SDS011;64593;51.050;13.780;2024-02-14T07:52:59;5.85;;;3.30;;
75914;SDS011;64593;51.050;13.780;2024-02-14T07:58:01;6.88;;;2.85;;
75914;SDS011;64593;51.050;13.780;2024-02-14T08:03:03;5.28;;;2.83;;
75914;SDS011;64593;51.050;13.780;2024-02-14T08:08:07;7.30;;;2.55;;
75914;SDS011;64593;51.050;13.780;2024-02-14T08:13:09;7.70;;;2.90;;
75914;SDS011;64593;51.050;13.780;2024-02-14T08:18:12;4.90;;;2.85;;
75914;SDS011;64593;51.050;13.780;2024-02-14T08:23:14;7.35;;;2.60;;
75914;SDS011;64593;51.050;13.780;2024-02-14T08:28:16;5.65;;;2.72;;
75914;SDS011;64593;51.050;13.780;2024-02-14T08:33:22;3.70;;;2.10;;
75914;SDS011;64593;51.050;13.780;2024-02-14T08:38:24;8.63;;;2.80;;
75914;SDS011;64593;51.050;13.780;2024-02-14T08:43:26;4.45;;;2.22;;
75914;SDS011;64593;51.050;13.780;2024-02-14T08:48:29;9.45;;;2.72;;
75914;SDS011;64593;51.050;13.780;2024-02-14T08:53:35;7.72;;;3.20;;
75914;SDS011;64593;51.050;13.780;2024-02-14T08:58:38;7.32;;;3.17;;
75914;SDS011;64593;51.050;13.780;2024-02-14T09:03:40;6.15;;;2.75;;
75914;SDS011;64593;51.050;13.780;2024-02-14T09:08:45;9.88;;;2.72;;
75914;SDS011;64593;51.050;13.780;2024-02-14T09:13:47;3.85;;;2.05;;
75914;SDS011;64593;51.050;13.780;2024-02-14T09:18:50;8.48;;;2.40;;
75914;SDS011;64593;51.050;13.780;2024-02-14T09:24:12;3.63;;;2.13;;
75914;SDS011;64593;51.050;13.780;2024-02-14T09:29:33;6.43;;;2.05;;
75914;SDS011;64593;51.050;13.780;2024-02-14T09:34:54;6.50;;;2.15;;
75914;SDS011;64593;51.050;13.780;2024-02-14T09:39:56;7.40;;;2.35;;
75914;SDS011;64593;51.050;13.780;2024-02-14T09:44:59;6.28;;;2.22;;
75914;SDS011;64593;51.050;13.780;2024-02-14T09:50:03;6.95;;;2.83;;
75914;SDS011;64593;51.050;13.780;2024-02-14T09:55:26;3.75;;;1.88;;
75914;SDS011;64593;51.050;13.780;2024-02-14T10:00:28;7.00;;;2.47;;
75914;SDS011;64593;51.050;13.780;2024-02-14T10:05:30;6.65;;;2.30;;
75914;SDS011;64593;51.050;13.780;2024-02-14T10:10:50;6.20;;;2.40;;
75914;SDS011;64593;51.050;13.780;2024-02-14T10:15:53;6.72;;;2.47;;
75914;SDS011;64593;51.050;13.780;2024-02-14T10:20:56;5.95;;;2.70;;
75914;SDS011;64593;51.050;13.780;2024-02-14T10:25:58;5.75;;;2.55;;
75914;SDS011;64593;51.050;13.780;2024-02-14T10:31:00;9.32;;;2.92;;
75914;SDS011;64593;51.050;13.780;2024-02-14T10:36:02;7.50;;;3.00;;
75914;SDS011;64593;51.050;13.780;2024-02-14T10:41:05;11.70;;;2.80;;
75914;SDS011;64593;51.050;13.780;2024-02-14T10:46:12;7.60;;;3.05;;
75914;SDS011;64593;51.050;13.780;2024-02-14T10:51:27;8.25;;;3.33;;
75914;SDS011;64593;51.050;13.780;2024-02-14T10:56:32;7.90;;;3.63;;
75914;SDS011;64593;51.050;13.780;2024-02-14T11:01:34;7.82;;;3.13;;
75914;SDS011;64593;51.050;13.780;2024-02-14T11:06:47;8.00;;;3.25;;
75914;SDS011;64593;51.050;13.780;2024-02-14T11:11:58;9.50;;;3.13;;
75914;SDS011;64593;51.050;13.780;2024-02-14T11:17:20;8.80;;;2.80;;
75914;SDS011;64593;51.050;13.780;2024-02-14T11:22:33;6.50;;;2.80;;
75914;SDS011;64593;51.050;13.780;2024-02-14T11:27:36;6.85;;;2.95;;
75914;SDS011;64593;51.050;13.780;2024-02-14T11:32:46;6.70;;;2.55;;
75914;SDS011;64593;51.050;13.780;2024-02-14T11:37:52;5.75;;;2.70;;
75914;SDS011;64593;51.050;13.780;2024-02-14T11:42:55;7.20;;;2.53;;
75914;SDS011;64593;51.050;13.780;2024-02-14T11:47:57;4.63;;;2.55;;
75914;SDS011;64593;51.050;13.780;2024-02-14T11:52:59;5.20;;;2.70;;
75914;SDS011;64593;51.050;13.780;2024-02-14T11:58:01;7.50;;;2.83;;
75914;SDS011;64593;51.050;13.780;2024-02-14T12:03:03;5.32;;;2.50;;
75914;SDS011;64593;51.050;13.780;2024-02-14T12:08:28;9.85;;;2.70;;
75914;SDS011;64593;51.050;13.780;2024-02-14T12:13:30;9.50;;;2.72;;
75914;SDS011;64593;51.050;13.780;2024-02-14T12:18:36;7.60;;;2.67;;
75914;SDS011;64593;51.050;13.780;2024-02-14T12:23:38;7.03;;;1.95;;
75914;SDS011;64593;51.050;13.780;2024-02-14T12:28:45;5.57;;;2.20;;
75914;SDS011;64593;51.050;13.780;2024-02-14T12:34:06;4.38;;;1.95;;
75914;SDS011;64593;51.050;13.780;2024-02-14T12:39:09;5.22;;;1.83;;
75914;SDS011;64593;51.050;13.780;2024-02-14T12:44:14;6.10;;;2.03;;
75914;SDS011;64593;51.050;13.780;2024-02-14T12:49:16;4.63;;;1.27;;
75914;SDS011;64593;51.050;13.780;2024-02-14T12:54:19;4.55;;;1.20;;
75914;SDS011;64593;51.050;13.780;2024-02-14T12:59:21;2.20;;;1.00;;
75914;SDS011;64593;51.050;13.780;2024-02-14T13:04:41;1.35;;;0.57;;
75914;SDS011;64593;51.050;13.780;2024-02-14T13:09:46;2.13;;;0.80;;
75914;SDS011;64593;51.050;13.780;2024-02-14T13:14:48;3.25;;;0.75;;
75914;SDS011;64593;51.050;13.780;2024-02-14T13:19:50;2.35;;;0.70;;
75914;SDS011;64593;51.050;13.780;2024-02-14T13:24:54;2.22;;;0.60;;
75914;SDS011;64593;51.050;13.780;2024-02-14T13:29:57;1.52;;;0.70;;
75914;SDS011;64593;51.050;13.780;2024-02-14T13:34:59;3.53;;;0.60;;
75914;SDS011;64593;51.050;13.780;2024-02-14T13:40:01;1.70;;;0.70;;
75914;SDS011;64593;51.050;13.780;2024-02-14T13:45:06;2.88;;;0.73;;
75914;SDS011;64593;51.050;13.780;2024-02-14T13:50:11;1.55;;;0.80;;
75914;SDS011;64593;51.050;13.780;2024-02-14T13:55:14;2.38;;;0.60;;
75914;SDS011;64593;51.050;13.780;2024-02-14T14:00:16;4.50;;;0.95;;
75914;SDS011;64593;51.050;13.780;2024-02-14T14:05:18;1.50;;;0.70;;
75914;SDS011;64593;51.050;13.780;2024-02-14T14:10:22;2.70;;;0.70;;
75914;SDS011;64593;51.050;13.780;2024-02-14T14:15:45;3.28;;;0.70;;
75914;SDS011;64593;51.050;13.780;2024-02-14T14:20:47;4.22;;;0.88;;
75914;SDS011;64593;51.050;13.780;2024-02-14T14:25:53;1.45;;;0.65;;
75914;SDS011;64593;51.050;13.780;2024-02-14T14:30:55;2.38;;;0.90;;
75914;SDS011;64593;51.050;13.780;2024-02-14T14:35:57;1.73;;;0.90;;
75914;SDS011;64593;51.050;13.780;2024-02-14T14:41:02;3.53;;;1.08;;
75914;SDS011;64593;51.050;13.780;2024-02-14T14:46:13;2.95;;;0.68;;
75914;SDS011;64593;51.050;13.780;2024-02-14T14:57:07;5.32;;;1.00;;
75914;SDS011;64593;51.050;13.780;2024-02-14T15:02:34;2.55;;;0.73;;
75914;SDS011;64593;51.050;13.780;2024-02-14T15:07:39;1.60;;;0.57;;
75914;SDS011;64593;51.050;13.780;2024-02-14T15:13:12;2.33;;;0.85;;
75914;SDS011;64593;51.050;13.780;2024-02-14T15:18:34;1.90;;;0.70;;
75914;SDS011;64593;51.050;13.780;2024-02-14T15:24:11;2.05;;;0.60;;
75914;SDS011;64593;51.050;13.780;2024-02-14T15:29:56;1.27;;;0.60;;
75914;SDS011;64593;51.050;13.780;2024-02-14T15:35:52;3.53;;;0.90;;
75914;SDS011;64593;51.050;13.780;2024-02-14T15:41:22;2.25;;;0.85;;
75914;SDS011;64593;51.050;13.780;2024-02-14T15:46:44;3.90;;;0.80;;
75914;SDS011;64593;51.050;13.780;2024-02-14T15:51:58;3.42;;;1.00;;
75914;SDS011;64593;51.050;13.780;2024-02-14T15:57:03;1.85;;;0.98;;
75914;SDS011;64593;51.050;13.780;2024-02-14T16:02:34;4.47;;;1.00;;
75914;SDS011;64593;51.050;13.780;2024-02-14T16:07:43;2.05;;;0.63;;
75914;SDS011;64593;51.050;13.780;2024-02-14T16:13:23;3.40;;;0.85;;
75914;SDS011;64593;51.050;13.780;2024-02-14T16:18:39;4.57;;;1.40;;
75914;SDS011;64593;51.050;13.780;2024-02-14T16:23:41;2.67;;;0.88;;
75914;SDS011;64593;51.050;13.780;2024-02-14T16:28:44;2.53;;;0.95;;
75914;SDS011;64593;51.050;13.780;2024-02-14T16:34:08;1.75;;;1.02;;
75914;SDS011;64593;51.050;13.780;2024-02-14T16:39:32;7.10;;;1.80;;
75914;SDS011;64593;51.050;13.780;2024-02-14T16:44:40;2.25;;;1.20;;
75914;SDS011;64593;51.050;13.780;2024-02-14T16:50:14;3.97;;;0.93;;
75914;SDS011;64593;51.050;13.780;2024-02-14T16:55:37;2.72;;;1.27;;
75914;SDS011;64593;51.050;13.780;2024-02-14T17:07:18;4.70;;;0.98;;
75914;SDS011;64593;51.050;13.780;2024-02-14T17:12:49;2.88;;;1.23;;
75914;SDS011;64593;51.050;13.780;2024-02-14T17:18:17;3.08;;;1.08;;
75914;SDS011;64593;51.050;13.780;2024-02-14T17:30:37;2.47;;;1.00;;
75914;SDS011;64593;51.050;13.780;2024-02-14T17:36:16;2.22;;;1.00;;
75914;SDS011;64593;51.050;13.780;2024-02-14T17:41:50;3.42;;;1.00;;
75914;SDS011;64593;51.050;13.780;2024-02-14T17:47:09;3.83;;;1.10;;
75914;SDS011;64593;51.050;13.780;2024-02-14T17:52:24;3.13;;;1.10;;
75914;SDS011;64593;51.050;13.780;2024-02-14T17:58:30;2.58;;;0.90;;
75914;SDS011;64593;51.050;13.780;2024-02-14T18:10:05;3.50;;;1.10;;
75914;SDS011;64593;51.050;13.780;2024-02-14T18:15:09;3.05;;;1.40;;
75914;SDS011;64593;51.050;13.780;2024-02-14T18:20:11;3.88;;;1.20;;
75914;SDS011;64593;51.050;13.780;2024-02-14T18:25:13;1.95;;;1.02;;
75914;SDS011;64593;51.050;13.780;2024-02-14T18:30:16;5.00;;;2.10;;
75914;SDS011;64593;51.050;13.780;2024-02-14T18:35:17;5.25;;;1.90;;
75914;SDS011;64593;51.050;13.780;2024-02-14T18:40:19;2.47;;;1.10;;
75914;SDS011;64593;51.050;13.780;2024-02-14T18:45:21;2.90;;;1.50;;
75914;SDS011;64593;51.050;13.780;2024-02-14T18:50:42;3.08;;;1.00;;
75914;SDS011;64593;51.050;13.780;2024-02-14T18:55:44;3.88;;;1.58;;
75914;SDS011;64593;51.050;13.780;2024-02-14T19:00:46;18.05;;;8.20;;
75914;SDS011;64593;51.050;13.780;2024-02-14T19:05:48;4.05;;;1.83;;
75914;SDS011;64593;51.050;13.780;2024-02-14T19:10:51;4.00;;;1.52;;
75914;SDS011;64593;51.050;13.780;2024-02-14T19:15:56;7.72;;;3.15;;
75914;SDS011;64593;51.050;13.780;2024-02-14T19:21:02;4.63;;;1.90;;
75914;SDS011;64593;51.050;13.780;2024-02-14T19:26:07;5.10;;;1.90;;
75914;SDS011;64593;51.050;13.780;2024-02-14T19:31:09;3.78;;;1.67;;
75914;SDS011;64593;51.050;13.780;2024-02-14T19:36:11;4.30;;;1.70;;
75914;SDS011;64593;51.050;13.780;2024-02-14T19:41:31;4.10;;;1.50;;
75914;SDS011;64593;51.050;13.780;2024-02-14T19:46:33;8.38;;;2.15;;
75914;SDS011;64593;51.050;13.780;2024-02-14T19:51:35;5.50;;;1.83;;
75914;SDS011;64593;51.050;13.780;2024-02-14T19:56:55;5.57;;;1.60;;
75914;SDS011;64593;51.050;13.780;2024-02-14T20:01:58;2.58;;;1.27;;
75914;SDS011;64593;51.050;13.780;2024-02-14T20:07:00;3.40;;;1.60;;
75914;SDS011;64593;51.050;13.780;2024-02-14T20:12:03;5.10;;;1.83;;
75914;SDS011;64593;51.050;13.780;2024-02-14T20:17:05;4.53;;;1.88;;
75914;SDS011;64593;51.050;13.780;2024-02-14T20:22:07;6.10;;;1.98;;
75914;SDS011;64593;51.050;13.780;2024-02-14T20:27:10;5.13;;;2.05;;
75914;SDS011;64593;51.050;13.780;2024-02-14T20:32:12;3.03;;;1.48;;
75914;SDS011;64593;51.050;13.780;2024-02-14T20:37:14;4.20;;;1.67;;
75914;SDS011;64593;51.050;13.780;2024-02-14T20:42:15;4.70;;;2.03;;
75914;SDS011;64593;51.050;13.780;2024-02-14T20:47:17;5.55;;;2.42;;
75914;SDS011;64593;51.050;13.780;2024-02-14T20:52:19;9.93;;;3.35;;
75914;SDS011;64593;51.050;13.780;2024-02-14T20:57:40;7.18;;;2.92;;
75914;SDS011;64593;51.050;13.780;2024-02-14T21:02:42;7.60;;;2.90;;
75914;SDS011;64593;51.050;13.780;2024-02-14T21:07:45;4.95;;;2.80;;
75914;SDS011;64593;51.050;13.780;2024-02-14T21:12:46;9.82;;;3.15;;
75914;SDS011;64593;51.050;13.780;2024-02-14T21:17:48;5.68;;;3.22;;
75914;SDS011;64593;51.050;13.780;2024-02-14T21:22:51;8.43;;;3.33;;
75914;SDS011;64593;51.050;13.780;2024-02-14T21:27:53;4.60;;;3.05;;
75914;SDS011;64593;51.050;13.780;2024-02-14T21:32:54;5.20;;;3.60;;
75914;SDS011;64593;51.050;13.780;2024-02-14T21:37:58;8.73;;;5.60;;
75914;SDS011;64593;51.050;13.780;2024-02-14T21:43:00;8.82;;;3.58;;
75914;SDS011;64593;51.050;13.780;2024-02-14T21:48:02;7.63;;;3.70;;
75914;SDS011;64593;51.050;13.780;2024-02-14T21:53:23;7.55;;;3.92;;
75914;SDS011;64593;51.050;13.780;2024-02-14T21:58:25;5.82;;;3.25;;
75914;SDS011;64593;51.050;13.780;2024-02-14T22:03:27;6.78;;;4.38;;
75914;SDS011;64593;51.050;13.780;2024-02-14T22:08:51;6.88;;;4.13;;
75914;SDS011;64593;51.050;13.780;2024-02-14T22:13:53;7.47;;;4.25;;
75914;SDS011;64593;51.050;13.780;2024-02-14T22:18:58;8.15;;;4.47;;
75914;SDS011;64593;51.050;13.780;2024-02-14T22:24:00;9.68;;;4.93;;
75914;SDS011;64593;51.050;13.780;2024-02-14T22:29:02;7.80;;;4.53;;
75914;SDS011;64593;51.050;13.780;2024-02-14T22:34:22;9.43;;;5.22;;
75914;SDS011;64593;51.050;13.780;2024-02-14T22:39:24;9.60;;;5.53;;
75914;SDS011;64593;51.050;13.780;2024-02-14T22:44:26;12.55;;;5.43;;
75914;SDS011;64593;51.050;13.780;2024-02-14T22:49:47;11.15;;;6.05;;
75914;SDS011;64593;51.050;13.780;2024-02-14T22:54:49;12.77;;;6.78;;
75914;SDS011;64593;51.050;13.780;2024-02-14T22:59:51;11.52;;;6.22;;
